createdAt,value
2018-05-23T00:01:02.946Z,20.91
2018-05-23T00:03:29.601Z,20.93
2018-05-23T00:05:55.456Z,20.82
2018-05-23T00:08:21.433Z,20.99
2018-05-23T00:10:47.232Z,20.95
2018-05-23T00:13:13.933Z,20.90
2018-05-23T00:15:39.736Z,20.92
2018-05-23T00:18:06.455Z,20.88
2018-05-23T00:20:32.256Z,20.81
2018-05-23T00:22:59.047Z,20.92
2018-05-23T00:25:25.645Z,20.90
2018-05-23T00:27:51.482Z,20.92
2018-05-23T00:30:17.428Z,20.88
2018-05-23T00:32:43.353Z,20.85
2018-05-23T00:35:09.265Z,20.94
2018-05-23T00:37:36.120Z,20.89
2018-05-23T00:40:02.896Z,20.83
2018-05-23T00:42:28.733Z,20.90
2018-05-23T00:44:55.359Z,20.90
2018-05-23T00:47:21.301Z,20.95
2018-05-23T00:49:48.208Z,20.85
2018-05-23T00:52:14.879Z,20.89
2018-05-23T00:54:46.764Z,20.79
2018-05-23T00:57:13.620Z,20.78
2018-05-23T00:59:40.248Z,20.72
2018-05-23T01:02:06.948Z,20.76
2018-05-23T01:04:32.801Z,20.74
2018-05-23T01:06:59.464Z,20.75
2018-05-23T01:09:26.404Z,20.75
2018-05-23T01:11:53.225Z,20.81
2018-05-23T01:14:19.144Z,20.77
2018-05-23T01:16:44.985Z,20.78
2018-05-23T01:19:10.883Z,20.79
2018-05-23T01:21:36.735Z,20.72
2018-05-23T01:24:02.542Z,20.77
2018-05-23T01:26:29.263Z,20.74
2018-05-23T01:28:56.026Z,20.73
2018-05-23T01:31:22.627Z,20.69
2018-05-23T01:33:49.385Z,20.68
2018-05-23T01:36:16.153Z,20.78
2018-05-23T01:38:42.972Z,20.72
2018-05-23T01:41:08.772Z,20.65
2018-05-23T01:43:34.641Z,20.70
2018-05-23T01:46:00.436Z,20.72
2018-05-23T01:48:32.308Z,20.76
2018-05-23T01:50:59.076Z,20.70
2018-05-23T01:53:24.924Z,20.76
2018-05-23T01:55:50.724Z,20.75
2018-05-23T01:58:16.576Z,20.72
2018-05-23T02:00:42.376Z,20.65
2018-05-23T02:03:08.172Z,20.66
2018-05-23T02:05:33.973Z,20.69
2018-05-23T02:07:59.774Z,20.70
2018-05-23T02:10:26.374Z,20.74
2018-05-23T02:12:53.128Z,20.78
2018-05-23T02:15:18.929Z,20.68
2018-05-23T02:17:44.731Z,20.75
2018-05-23T02:20:10.536Z,20.84
2018-05-23T02:22:36.402Z,20.73
2018-05-23T02:25:02.204Z,20.75
2018-05-23T02:27:28.005Z,20.76
2018-05-23T02:29:53.808Z,20.73
2018-05-23T02:32:19.617Z,20.75
2018-05-23T02:34:45.423Z,20.72
2018-05-23T02:37:11.252Z,20.76
2018-05-23T02:39:37.052Z,20.80
2018-05-23T02:42:03.830Z,20.82
2018-05-23T02:44:29.628Z,20.70
2018-05-23T02:46:55.784Z,20.71
2018-05-23T02:49:21.596Z,20.79
2018-05-23T02:51:47.396Z,20.72
2018-05-23T02:54:13.196Z,20.70
2018-05-23T02:56:39.001Z,20.77
2018-05-23T02:59:04.957Z,20.70
2018-05-23T03:01:30.756Z,20.71
2018-05-23T03:03:57.348Z,20.72
2018-05-23T03:06:23.242Z,20.72
2018-05-23T03:08:49.036Z,20.62
2018-05-23T03:11:14.874Z,20.70
2018-05-23T03:13:41.572Z,20.70
2018-05-23T03:16:07.372Z,20.67
2018-05-23T03:18:33.324Z,20.59
2018-05-23T03:20:59.178Z,20.62
2018-05-23T03:23:24.982Z,20.72
2018-05-23T03:25:50.850Z,20.79
2018-05-23T03:28:16.652Z,20.68
2018-05-23T03:30:42.452Z,20.68
2018-05-23T03:33:08.301Z,20.66
2018-05-23T03:35:34.100Z,20.67
2018-05-23T03:37:59.989Z,20.73
2018-05-23T03:40:25.793Z,20.73
2018-05-23T03:42:51.592Z,20.64
2018-05-23T03:45:17.395Z,20.64
2018-05-23T03:47:43.196Z,20.69
2018-05-23T03:50:09.865Z,20.75
2018-05-23T03:52:36.513Z,20.59
2018-05-23T03:55:02.370Z,20.62
2018-05-23T03:57:28.168Z,20.75
2018-05-23T04:00:00.165Z,20.72
2018-05-23T04:02:32.268Z,20.73
2018-05-23T04:05:04.313Z,20.62
2018-05-23T04:07:30.128Z,20.70
2018-05-23T04:09:55.972Z,20.65
2018-05-23T04:12:21.772Z,20.71
2018-05-23T04:14:48.457Z,20.77
2018-05-23T04:17:14.300Z,20.76
2018-05-23T04:19:40.973Z,20.76
2018-05-23T04:22:07.734Z,20.68
2018-05-23T04:24:33.605Z,20.72
2018-05-23T04:27:00.199Z,20.81
2018-05-23T04:29:26.036Z,20.74
2018-05-23T04:31:51.884Z,20.72
2018-05-23T04:34:17.688Z,20.72
2018-05-23T04:36:44.548Z,20.69
2018-05-23T04:39:11.216Z,20.72
2018-05-23T04:41:37.026Z,20.73
2018-05-23T04:44:04.017Z,20.76
2018-05-23T04:46:30.744Z,20.71
2018-05-23T04:48:57.540Z,20.78
2018-05-23T04:51:23.341Z,20.72
2018-05-23T04:53:49.143Z,20.74
2018-05-23T04:56:15.959Z,20.69
2018-05-23T04:58:42.807Z,20.67
2018-05-23T05:01:08.609Z,20.80
2018-05-23T05:03:34.416Z,20.96
2018-05-23T05:06:00.248Z,21.13
2018-05-23T05:08:26.057Z,21.23
2018-05-23T05:10:51.892Z,21.30
2018-05-23T05:13:17.816Z,21.37
2018-05-23T05:15:43.617Z,21.41
2018-05-23T05:18:10.435Z,21.49
2018-05-23T05:20:37.314Z,21.50
2018-05-23T05:23:03.116Z,21.55
2018-05-23T05:25:28.917Z,21.59
2018-05-23T05:27:54.893Z,21.61
2018-05-23T05:30:21.672Z,21.61
2018-05-23T05:32:47.481Z,21.58
2018-05-23T05:35:13.288Z,21.59
2018-05-23T05:37:39.962Z,21.61
2018-05-23T05:40:05.962Z,21.60
2018-05-23T05:42:32.740Z,21.61
2018-05-23T05:44:58.701Z,21.57
2018-05-23T05:47:25.312Z,21.56
2018-05-23T05:49:51.114Z,21.54
2018-05-23T05:52:17.077Z,21.55
2018-05-23T05:54:42.873Z,21.54
2018-05-23T05:57:09.253Z,21.56
2018-05-23T05:59:35.116Z,21.55
2018-05-23T06:02:01.048Z,21.54
2018-05-23T06:04:26.812Z,21.55
2018-05-23T06:06:52.608Z,21.56
2018-05-23T06:09:18.422Z,21.52
2018-05-23T06:11:44.224Z,21.56
2018-05-23T06:14:10.024Z,21.55
2018-05-23T06:16:35.820Z,21.55
2018-05-23T06:19:01.613Z,21.54
2018-05-23T06:21:27.409Z,21.56
2018-05-23T06:23:53.204Z,21.53
2018-05-23T06:26:19.005Z,21.49
2018-05-23T06:28:44.804Z,21.52
2018-05-23T06:31:10.644Z,21.51
2018-05-23T06:33:36.485Z,21.53
2018-05-23T06:36:02.282Z,21.53
2018-05-23T06:38:28.116Z,21.53
2018-05-23T06:40:54.781Z,21.55
2018-05-23T06:43:20.636Z,21.51
2018-05-23T06:45:46.439Z,21.51
2018-05-23T06:48:12.244Z,21.54
2018-05-23T06:50:38.040Z,21.53
2018-05-23T06:53:03.907Z,21.53
2018-05-23T06:55:29.828Z,21.51
2018-05-23T06:57:55.672Z,21.52
2018-05-23T07:00:21.611Z,21.51
2018-05-23T07:02:47.418Z,21.50
2018-05-23T07:05:13.272Z,21.54
2018-05-23T07:07:39.069Z,21.51
2018-05-23T07:10:04.878Z,21.47
2018-05-23T07:12:31.221Z,21.48
2018-05-23T07:14:57.033Z,21.49
2018-05-23T07:17:22.841Z,21.52
2018-05-23T07:19:48.646Z,21.51
2018-05-23T07:22:14.500Z,21.53
2018-05-23T07:24:41.184Z,21.54
2018-05-23T07:27:07.857Z,21.53
2018-05-23T07:29:33.671Z,21.48
2018-05-23T07:31:59.472Z,21.51
2018-05-23T07:34:25.357Z,21.46
2018-05-23T07:36:51.190Z,21.49
2018-05-23T07:39:17.036Z,21.51
2018-05-23T07:41:42.841Z,21.46
2018-05-23T07:44:08.684Z,21.50
2018-05-23T07:46:34.476Z,21.47
2018-05-23T07:49:00.272Z,21.44
2018-05-23T07:51:26.080Z,21.44
2018-05-23T07:53:52.719Z,21.43
2018-05-23T07:56:19.517Z,21.42
2018-05-23T07:58:45.315Z,21.43
2018-05-23T08:01:11.179Z,21.41
2018-05-23T08:03:37.792Z,21.39
2018-05-23T08:06:04.536Z,21.40
2018-05-23T08:08:30.396Z,21.40
2018-05-23T08:10:56.236Z,21.43
2018-05-23T08:13:22.032Z,21.38
2018-05-23T08:15:48.760Z,21.39
2018-05-23T08:18:15.509Z,21.36
2018-05-23T08:20:41.362Z,21.42
2018-05-23T08:23:07.157Z,21.33
2018-05-23T08:25:32.952Z,21.35
2018-05-23T08:27:58.761Z,21.37
2018-05-23T08:30:24.566Z,21.36
2018-05-23T08:32:50.405Z,21.37
2018-05-23T08:35:17.199Z,21.36
2018-05-23T08:37:43.000Z,21.33
2018-05-23T08:40:09.663Z,21.33
2018-05-23T08:42:36.405Z,21.33
2018-05-23T08:45:02.237Z,21.34
2018-05-23T08:47:28.128Z,21.36
2018-05-23T08:49:53.928Z,21.31
2018-05-23T08:52:19.729Z,21.33
2018-05-23T08:54:45.528Z,21.35
2018-05-23T08:57:11.328Z,21.34
2018-05-23T08:59:37.127Z,21.32
2018-05-23T09:02:03.790Z,21.36
2018-05-23T09:04:29.684Z,21.36
2018-05-23T09:06:55.487Z,21.49
2018-05-23T09:09:22.177Z,21.58
2018-05-23T09:11:47.971Z,21.65
2018-05-23T09:14:13.768Z,21.73
2018-05-23T09:16:39.565Z,21.81
2018-05-23T09:19:05.373Z,21.87
2018-05-23T09:21:32.124Z,21.88
2018-05-23T09:23:57.930Z,21.87
2018-05-23T09:26:24.708Z,21.88
2018-05-23T09:28:51.340Z,21.88
2018-05-23T09:31:17.222Z,21.87
2018-05-23T09:33:43.852Z,21.87
2018-05-23T09:36:09.652Z,21.84
2018-05-23T09:38:35.456Z,21.82
2018-05-23T09:41:01.248Z,21.83
2018-05-23T09:43:27.040Z,21.85
2018-05-23T09:45:52.839Z,21.84
2018-05-23T09:48:18.669Z,21.82
2018-05-23T09:50:44.468Z,21.81
2018-05-23T09:53:10.269Z,21.80
2018-05-23T09:55:36.899Z,21.78
2018-05-23T09:58:02.701Z,21.80
2018-05-23T10:00:28.540Z,21.82
2018-05-23T10:02:54.342Z,21.83
2018-05-23T10:05:20.184Z,21.81
2018-05-23T10:07:46.911Z,21.79
2018-05-23T10:10:12.749Z,21.82
2018-05-23T10:12:38.544Z,21.80
2018-05-23T10:15:04.341Z,21.78
2018-05-23T10:17:30.144Z,21.75
2018-05-23T10:19:55.949Z,21.78
2018-05-23T10:22:21.757Z,21.73
2018-05-23T10:24:47.561Z,21.74
2018-05-23T10:27:13.368Z,21.77
2018-05-23T10:29:39.176Z,21.76
2018-05-23T10:32:05.839Z,21.71
2018-05-23T10:34:31.648Z,21.73
2018-05-23T10:36:57.660Z,21.74
2018-05-23T10:39:23.623Z,21.72
2018-05-23T10:41:49.429Z,21.73
2018-05-23T10:44:16.014Z,21.68
2018-05-23T10:46:41.812Z,21.66
2018-05-23T10:49:07.604Z,21.70
2018-05-23T10:51:33.674Z,21.71
2018-05-23T10:53:59.469Z,21.68
2018-05-23T10:56:25.268Z,21.69
2018-05-23T10:58:51.064Z,21.69
2018-05-23T11:01:16.860Z,21.65
2018-05-23T11:03:42.705Z,21.70
2018-05-23T11:06:08.501Z,21.60
2018-05-23T11:08:34.337Z,21.63
2018-05-23T11:11:00.992Z,21.62
2018-05-23T11:13:26.792Z,21.63
2018-05-23T11:15:53.615Z,21.66
2018-05-23T11:18:20.407Z,21.67
2018-05-23T11:20:47.124Z,21.65
2018-05-23T11:23:12.968Z,21.60
2018-05-23T11:25:39.614Z,21.67
2018-05-23T11:28:06.502Z,21.62
2018-05-23T11:30:33.118Z,21.62
2018-05-23T11:32:59.779Z,21.60
2018-05-23T11:35:26.545Z,21.62
2018-05-23T11:37:52.352Z,21.66
2018-05-23T11:40:18.756Z,21.61
2018-05-23T11:42:44.595Z,21.66
2018-05-23T11:45:10.396Z,21.61
2018-05-23T11:47:36.241Z,21.61
2018-05-23T11:50:02.037Z,21.64
2018-05-23T11:52:27.980Z,21.60
2018-05-23T11:54:53.779Z,21.62
2018-05-23T11:57:19.658Z,21.63
2018-05-23T11:59:45.464Z,21.52
2018-05-23T12:02:11.324Z,21.55
2018-05-23T12:04:37.120Z,21.67
2018-05-23T12:07:02.973Z,21.64
2018-05-23T12:09:28.773Z,21.58
2018-05-23T12:11:54.569Z,21.65
2018-05-23T12:14:21.223Z,21.60
2018-05-23T12:16:47.028Z,21.59
2018-05-23T12:19:12.872Z,21.58
2018-05-23T12:21:38.664Z,21.60
2018-05-23T12:24:04.460Z,21.62
2018-05-23T12:26:31.281Z,21.63
2018-05-23T12:28:57.116Z,21.58
2018-05-23T12:31:22.916Z,21.55
2018-05-23T12:33:48.707Z,21.54
2018-05-23T12:36:14.505Z,21.57
2018-05-23T12:38:40.359Z,21.61
2018-05-23T12:41:06.206Z,21.56
2018-05-23T12:43:32.006Z,21.60
2018-05-23T12:45:57.821Z,21.59
2018-05-23T12:48:23.620Z,21.61
2018-05-23T12:50:49.420Z,21.55
2018-05-23T12:53:15.256Z,21.55
2018-05-23T12:55:41.989Z,21.54
2018-05-23T12:58:08.786Z,21.55
2018-05-23T13:00:34.594Z,21.54
2018-05-23T13:03:01.401Z,21.56
2018-05-23T13:05:27.257Z,21.62
2018-05-23T13:07:53.151Z,21.56
2018-05-23T13:10:19.958Z,21.53
2018-05-23T13:12:46.962Z,21.52
2018-05-23T13:15:12.929Z,21.56
2018-05-23T13:17:39.682Z,21.53
2018-05-23T13:20:06.512Z,21.51
2018-05-23T13:22:32.308Z,21.49
2018-05-23T13:24:58.167Z,21.49
2018-05-23T13:27:24.924Z,21.55
2018-05-23T13:29:50.724Z,21.53
2018-05-23T13:32:17.453Z,21.54
2018-05-23T13:34:44.248Z,21.55
2018-05-23T13:37:11.008Z,21.53
2018-05-23T13:39:36.864Z,21.54
2018-05-23T13:42:02.660Z,21.53
2018-05-23T13:44:28.455Z,21.48
2018-05-23T13:46:54.252Z,21.54
2018-05-23T13:49:20.048Z,21.56
2018-05-23T13:51:46.876Z,21.52
2018-05-23T13:54:12.676Z,21.50
2018-05-23T13:56:38.473Z,21.49
2018-05-23T13:59:04.301Z,21.48
2018-05-23T14:01:31.077Z,21.49
2018-05-23T14:03:56.884Z,21.54
2018-05-23T14:06:22.681Z,21.47
2018-05-23T14:08:48.484Z,21.53
2018-05-23T14:11:14.281Z,21.51
2018-05-23T14:13:41.012Z,21.50
2018-05-23T14:16:06.816Z,21.52
2018-05-23T14:18:32.740Z,21.51
2018-05-23T14:20:59.501Z,21.55
2018-05-23T14:23:25.320Z,21.52
2018-05-23T14:25:52.021Z,21.42
2018-05-23T14:28:17.821Z,21.50
2018-05-23T14:30:44.480Z,21.51
2018-05-23T14:33:10.294Z,21.49
2018-05-23T14:35:36.957Z,21.50
2018-05-23T14:38:03.728Z,21.46
2018-05-23T14:40:30.500Z,21.52
2018-05-23T14:42:56.300Z,21.49
2018-05-23T14:45:22.097Z,21.48
2018-05-23T14:47:47.899Z,21.55
2018-05-23T14:50:13.703Z,21.49
2018-05-23T14:52:39.552Z,21.53
2018-05-23T14:55:05.358Z,21.53
2018-05-23T14:57:31.178Z,21.49
2018-05-23T14:59:56.989Z,21.47
2018-05-23T15:02:22.897Z,21.50
2018-05-23T15:04:48.742Z,21.48
2018-05-23T15:07:15.448Z,21.50
2018-05-23T15:09:41.323Z,21.52
2018-05-23T15:12:07.125Z,21.52
2018-05-23T15:14:34.106Z,21.48
2018-05-23T15:17:00.906Z,21.46
2018-05-23T15:19:26.706Z,21.46
2018-05-23T15:21:52.510Z,21.50
2018-05-23T15:24:18.318Z,21.50
2018-05-23T15:26:44.157Z,21.54
2018-05-23T15:29:09.953Z,21.52
2018-05-23T15:31:35.839Z,21.48
2018-05-23T15:34:01.589Z,21.51
2018-05-23T15:36:27.463Z,21.50
2018-05-23T15:38:53.270Z,21.52
2018-05-23T15:41:19.068Z,21.50
2018-05-23T15:43:44.880Z,21.46
2018-05-23T15:46:10.680Z,21.46
2018-05-23T15:48:36.471Z,21.49
2018-05-23T15:51:02.321Z,21.48
2018-05-23T15:53:28.125Z,21.45
2018-05-23T15:55:53.925Z,21.51
2018-05-23T15:58:19.720Z,21.45
2018-05-23T16:00:45.532Z,21.42
2018-05-23T16:03:11.328Z,21.44
2018-05-23T16:05:37.180Z,21.48
2018-05-23T16:08:03.829Z,21.50
2018-05-23T16:10:29.677Z,21.51
2018-05-23T16:12:55.479Z,21.45
2018-05-23T16:15:21.277Z,21.52
2018-05-23T16:17:47.077Z,21.48
2018-05-23T16:20:13.681Z,21.53
2018-05-23T16:22:40.494Z,21.49
2018-05-23T16:25:07.253Z,21.46
2018-05-23T16:27:34.073Z,21.51
2018-05-23T16:29:59.872Z,21.44
2018-05-23T16:32:26.577Z,21.48
2018-05-23T16:34:53.393Z,21.39
2018-05-23T16:37:20.012Z,21.44
2018-05-23T16:39:45.807Z,21.46
2018-05-23T16:42:12.400Z,21.44
2018-05-23T16:44:38.243Z,21.46
2018-05-23T16:47:05.029Z,21.43
2018-05-23T16:49:30.867Z,21.44
2018-05-23T16:51:56.797Z,21.48
2018-05-23T16:54:23.465Z,21.43
2018-05-23T16:56:49.312Z,21.48
2018-05-23T16:59:15.108Z,21.40
2018-05-23T17:01:40.929Z,21.43
2018-05-23T17:04:07.548Z,21.45
2018-05-23T17:06:33.492Z,21.40
2018-05-23T17:08:59.184Z,21.45
2018-05-23T17:11:24.984Z,21.46
2018-05-23T17:13:50.828Z,21.44
2018-05-23T17:16:16.677Z,21.37
2018-05-23T17:18:42.596Z,21.40
2018-05-23T17:21:08.353Z,21.44
2018-05-23T17:23:34.155Z,21.41
2018-05-23T17:25:59.962Z,21.38
2018-05-23T17:28:26.650Z,21.43
2018-05-23T17:30:52.455Z,21.37
2018-05-23T17:33:18.305Z,21.41
2018-05-23T17:35:44.938Z,21.41
2018-05-23T17:38:10.747Z,21.37
2018-05-23T17:40:36.589Z,21.39
2018-05-23T17:43:02.492Z,21.41
2018-05-23T17:45:28.334Z,21.34
2018-05-23T17:47:55.098Z,21.40
2018-05-23T17:50:21.910Z,21.34
2018-05-23T17:52:48.589Z,21.35
2018-05-23T17:55:14.434Z,21.39
2018-05-23T17:57:40.785Z,21.58
2018-05-23T18:00:06.660Z,21.67
2018-05-23T18:02:32.465Z,21.74
2018-05-23T18:04:58.272Z,21.82
2018-05-23T18:07:24.940Z,21.81
2018-05-23T18:09:50.740Z,21.87
2018-05-23T18:12:16.550Z,21.91
2018-05-23T18:14:42.562Z,21.93
2018-05-23T18:17:08.365Z,21.93
2018-05-23T18:19:34.305Z,21.92
2018-05-23T18:22:00.113Z,21.93
2018-05-23T18:24:26.040Z,21.91
2018-05-23T18:26:52.813Z,21.93
2018-05-23T18:29:18.719Z,21.88
2018-05-23T18:31:44.534Z,21.88
2018-05-23T18:34:10.455Z,21.86
2018-05-23T18:36:36.368Z,21.89
2018-05-23T18:39:02.790Z,21.87
2018-05-23T18:41:28.719Z,21.86
2018-05-23T18:43:54.684Z,21.87
2018-05-23T18:46:20.505Z,21.88
2018-05-23T18:48:46.309Z,21.86
2018-05-23T18:51:12.116Z,21.84
2018-05-23T18:53:37.942Z,21.82
2018-05-23T18:56:03.772Z,21.84
2018-05-23T18:58:29.645Z,21.82
2018-05-23T19:00:55.608Z,21.81
2018-05-23T19:03:21.415Z,21.84
2018-05-23T19:05:48.180Z,21.82
2018-05-23T19:08:14.082Z,21.81
2018-05-23T19:10:39.936Z,21.81
2018-05-23T19:13:05.740Z,21.79
2018-05-23T19:15:31.544Z,21.77
2018-05-23T19:17:57.833Z,21.73
2018-05-23T19:20:23.644Z,21.76
2018-05-23T19:22:49.540Z,21.80
2018-05-23T19:25:15.386Z,21.77
2018-05-23T19:27:41.953Z,21.79
2018-05-23T19:30:07.757Z,21.74
2018-05-23T19:32:33.720Z,21.76
2018-05-23T19:34:59.841Z,21.74
2018-05-23T19:37:26.177Z,21.69
2018-05-23T19:39:52.047Z,21.73
2018-05-23T19:42:17.910Z,21.74
2018-05-23T19:44:43.757Z,21.75
2018-05-23T19:47:09.716Z,21.75
2018-05-23T19:49:36.373Z,21.69
2018-05-23T19:52:02.288Z,21.67
2018-05-23T19:54:28.112Z,21.62
2018-05-23T19:56:53.954Z,21.77
2018-05-23T19:59:19.882Z,21.78
2018-05-23T20:01:45.736Z,21.80
2018-05-23T20:04:11.596Z,21.78
2018-05-23T20:06:37.400Z,21.78
2018-05-23T20:09:05.101Z,21.78
2018-05-23T20:11:31.853Z,21.75
2018-05-23T20:13:57.707Z,21.76
2018-05-23T20:16:24.485Z,21.77
2018-05-23T20:18:50.356Z,21.75
2018-05-23T20:21:16.236Z,21.74
2018-05-23T20:23:42.734Z,21.76
2018-05-23T20:26:08.532Z,21.73
2018-05-23T20:28:34.332Z,21.76
2018-05-23T20:31:00.152Z,21.74
2018-05-23T20:33:26.937Z,21.72
2018-05-23T20:35:52.811Z,21.72
2018-05-23T20:38:18.676Z,21.76
2018-05-23T20:40:44.532Z,21.76
2018-05-23T20:43:11.321Z,21.75
2018-05-23T20:45:37.120Z,21.74
2018-05-23T20:48:02.916Z,21.73
2018-05-23T20:50:28.721Z,21.73
2018-05-23T20:52:54.676Z,21.70
2018-05-23T20:55:20.461Z,21.69
2018-05-23T20:57:46.309Z,21.70
2018-05-23T21:00:12.155Z,21.71
2018-05-23T21:02:38.025Z,21.72
2018-05-23T21:05:03.905Z,21.71
2018-05-23T21:07:29.697Z,21.65
2018-05-23T21:09:55.676Z,21.67
2018-05-23T21:12:21.485Z,21.67
2018-05-23T21:14:47.329Z,21.67
2018-05-23T21:17:13.888Z,21.70
2018-05-23T21:19:39.757Z,21.69
2018-05-23T21:22:05.563Z,21.69
2018-05-23T21:24:31.370Z,21.68
2018-05-23T21:26:57.200Z,21.68
2018-05-23T21:29:23.008Z,21.68
2018-05-23T21:31:48.850Z,21.65
2018-05-23T21:34:15.540Z,21.63
2018-05-23T21:36:42.345Z,21.64
2018-05-23T21:39:09.246Z,21.62
2018-05-23T21:41:35.172Z,21.67
2018-05-23T21:44:01.142Z,21.64
2018-05-23T21:46:26.944Z,21.62
2018-05-23T21:48:53.636Z,21.59
2018-05-23T21:51:19.441Z,21.61
2018-05-23T21:53:45.312Z,21.63
2018-05-23T21:56:11.113Z,21.65
2018-05-23T21:58:38.134Z,21.62
2018-05-23T22:01:03.940Z,21.58
2018-05-23T22:03:29.744Z,21.61
2018-05-23T22:05:56.173Z,21.60
2018-05-23T22:08:21.976Z,21.59
2018-05-23T22:10:47.780Z,21.53
2018-05-23T22:13:13.580Z,21.59
2018-05-23T22:15:39.512Z,21.62
2018-05-23T22:18:05.313Z,21.59
2018-05-23T22:20:32.084Z,21.61
2018-05-23T22:22:57.880Z,21.62
2018-05-23T22:25:23.680Z,21.66
2018-05-23T22:27:50.328Z,21.66
2018-05-23T22:30:16.209Z,21.65
2018-05-23T22:32:42.813Z,21.65
2018-05-23T22:35:09.250Z,21.63
2018-05-23T22:37:35.052Z,21.63
2018-05-23T22:40:00.852Z,21.65
2018-05-23T22:42:26.657Z,21.60
2018-05-23T22:44:52.459Z,21.62
2018-05-23T22:47:18.261Z,21.60
2018-05-23T22:49:44.065Z,21.59
2018-05-23T22:52:10.836Z,21.61
2018-05-23T22:54:37.408Z,21.55
2018-05-23T22:57:03.203Z,21.53
2018-05-23T22:59:29.794Z,21.57
2018-05-23T23:01:56.603Z,21.55
2018-05-23T23:04:22.400Z,21.51
2018-05-23T23:06:48.208Z,21.53
2018-05-23T23:09:14.009Z,21.48
2018-05-23T23:11:39.810Z,21.51
2018-05-23T23:14:05.616Z,21.51
2018-05-23T23:16:31.417Z,21.52
2018-05-23T23:18:57.296Z,21.50
2018-05-23T23:21:23.077Z,21.54
2018-05-23T23:23:48.884Z,21.49
2018-05-23T23:26:14.688Z,21.44
2018-05-23T23:28:40.500Z,21.49
2018-05-23T23:31:06.296Z,21.46
2018-05-23T23:33:32.200Z,21.49
2018-05-23T23:35:58.882Z,21.50
2018-05-23T23:38:25.644Z,21.44
2018-05-23T23:40:51.479Z,21.45
2018-05-23T23:43:17.320Z,21.52
2018-05-23T23:45:43.160Z,21.50
2018-05-23T23:48:09.965Z,21.53
2018-05-23T23:50:36.793Z,21.47
2018-05-23T23:53:02.604Z,21.49
2018-05-23T23:55:29.282Z,21.46
2018-05-23T23:57:55.500Z,21.46
